Time;durP1;ratioP1;P1;durP2;ratioP2;P2;SDS_P1;SDS_P2;PMS_P1;PMS_P2;Temp;Humidity;BMP_temperature;BMP_pressure;BME280_temperature;BME280_humidity;BME280_pressure;Samples;Min_cycle;Max_cycle;Signal;HPM_P1;HPM_P2
2022/01/18 00:01:45;;;;;;;;;;;;;;;3.06;62.94;103054.97;7359892;19;20594;-62
2022/01/18 00:04:11;;;;;;;;;;;;;;;3.04;63.03;103050.53;7360613;19;19919;-62
2022/01/18 00:06:39;;;;;;;;;;;;;;;3.02;62.87;103052.19;7357355;19;20300;-62
2022/01/18 00:09:05;;;;;;;;;;;;;;;3.00;62.98;103038.31;7360827;19;19935;-62
2022/01/18 00:11:38;;;;;;;;;;;;;;;2.96;63.23;103032.13;7353261;19;19910;-62
2022/01/18 00:14:12;;;;;;;;;;;;;;;2.95;62.80;103032.06;7358796;19;19919;-62
2022/01/18 00:16:49;;;;;;;;;;;;;;;2.93;62.95;103036.25;7356102;19;20261;-62
2022/01/18 00:19:14;;;;;;;;;;;;;;;2.93;63.08;103031.09;7363503;19;20347;-62
2022/01/18 00:24:24;;;;;;;;;;;;;;;2.90;62.88;103036.13;7366614;19;19935;-62
2022/01/18 00:26:49;;;;;;;;;;;;;;;2.86;63.31;103041.16;7364282;19;19918;-62
2022/01/18 00:29:17;;;;;;;;;;;;;;;2.84;63.33;103037.63;7366430;19;19982;-62
2022/01/18 00:32:11;;;;;;;;;;;;;;;2.84;63.01;103037.63;7361516;19;19924;-62
2022/01/18 00:34:32;;;;;;;;;;;;;;;2.81;63.59;103042.63;7267472;19;2004252;-62
2022/01/18 00:37:11;;;;;;;;;;;;;;;2.80;63.39;103046.03;7368579;19;19927;-62
2022/01/18 00:39:40;;;;;;;;;;;;;;;2.79;63.40;103033.94;7360438;19;19915;-62
2022/01/18 00:42:06;;;;;;;;;;;;;;;2.78;63.40;103036.44;7359732;19;19927;-61
2022/01/18 00:44:31;;;;;;;;;;;;;;;2.76;63.66;103020.88;7347756;19;19931;-61
2022/01/18 00:46:56;;;;;;;;;;;;;;;2.75;63.65;103021.72;7351485;19;19926;-62
2022/01/18 00:49:22;;;;;;;;;;;;;;;2.73;63.47;103033.63;7358334;19;19928;-62
2022/01/18 00:51:54;;;;;;;;;;;;;;;2.72;63.78;103015.50;7361110;19;19926;-60
2022/01/18 00:54:28;;;;;;;;;;;;;;;2.71;63.75;103012.06;7342192;19;19918;-62
2022/01/18 00:56:54;;;;;;;;;;;;;;;2.69;63.52;103005.06;7359853;19;19966;-62
2022/01/18 00:59:20;;;;;;;;;;;;;;;2.67;64.00;103017.88;7361261;19;19922;-62
2022/01/18 01:01:46;;;;;;;;;;;;;;;2.65;63.81;102998.88;7360374;19;21475;-62
2022/01/18 01:04:12;;;;;;;;;;;;;;;2.64;63.54;102997.13;7347175;19;20371;-62
2022/01/18 01:06:37;;;;;;;;;;;;;;;2.62;64.10;102990.97;7357197;19;19948;-61
2022/01/18 01:09:03;;;;;;;;;;;;;;;2.60;64.11;102979.72;7359504;19;20380;-61
2022/01/18 01:11:29;;;;;;;;;;;;;;;2.58;64.05;102989.06;7348688;19;19922;-62
2022/01/18 01:13:55;;;;;;;;;;;;;;;2.56;64.10;102980.38;7361466;19;21702;-62
2022/01/18 01:43:25;;;;;;;;;;;;;;;2.36;63.90;102948.50;7361443;19;19925;-61
2022/01/18 01:45:52;;;;;;;;;;;;;;;2.34;64.06;102951.03;7364340;19;19951;-62
2022/01/18 01:48:18;;;;;;;;;;;;;;;2.31;63.88;102948.28;7360669;19;19918;-62
2022/01/18 01:50:54;;;;;;;;;;;;;;;2.29;63.91;102955.06;7367501;19;19926;-62
2022/01/18 01:53:21;;;;;;;;;;;;;;;2.23;64.32;102935.84;7364413;19;19922;-62
2022/01/18 01:55:47;;;;;;;;;;;;;;;2.24;64.08;102943.66;7369066;19;19949;-62
2022/01/18 01:58:13;;;;;;;;;;;;;;;2.23;64.44;102936.75;7369406;19;20262;-62
2022/01/18 02:00:46;;;;;;;;;;;;;;;2.22;64.10;102934.97;7364443;19;19975;-61
2022/01/18 02:03:12;;;;;;;;;;;;;;;2.20;64.53;102930.56;7368556;19;19927;-62
2022/01/18 02:05:37;;;;;;;;;;;;;;;2.20;64.14;102934.00;7369469;19;19914;-61
2022/01/18 02:08:06;;;;;;;;;;;;;;;2.18;64.31;102942.47;7370309;19;19919;-62
2022/01/18 02:10:32;;;;;;;;;;;;;;;2.16;64.54;102944.97;7376138;19;20638;-62
2022/01/18 02:12:57;;;;;;;;;;;;;;;2.14;64.31;102944.03;7376649;19;19936;-62
2022/01/18 02:15:22;;;;;;;;;;;;;;;2.13;64.56;102950.00;7377638;19;20352;-62
2022/01/18 02:23:17;;;;;;;;;;;;;;;2.05;64.45;102938.44;7369473;19;19943;-62
2022/01/18 02:25:43;;;;;;;;;;;;;;;2.05;64.26;102941.00;7372827;19;19919;-62
2022/01/18 02:28:08;;;;;;;;;;;;;;;2.02;64.45;102939.16;7367021;19;19974;-62
2022/01/18 02:30:34;;;;;;;;;;;;;;;2.01;64.68;102933.94;7363176;19;20006;-62
2022/01/18 02:32:59;;;;;;;;;;;;;;;2.00;64.52;102942.50;7366353;19;19964;-62
2022/01/18 02:35:24;;;;;;;;;;;;;;;1.98;64.41;102932.13;7369482;19;19923;-62
2022/01/18 02:37:53;;;;;;;;;;;;;;;1.97;64.69;102932.03;7365789;19;19953;-60
2022/01/18 02:40:19;;;;;;;;;;;;;;;1.95;64.71;102926.81;7364662;19;19946;-62
2022/01/18 02:42:55;;;;;;;;;;;;;;;1.95;64.77;102918.19;7366286;19;19926;-61
2022/01/18 02:45:20;;;;;;;;;;;;;;;1.95;65.19;102913.03;7363599;19;20716;-61
2022/01/18 02:47:46;;;;;;;;;;;;;;;1.96;65.16;102917.38;7366784;19;19927;-62
2022/01/18 02:50:11;;;;;;;;;;;;;;;1.96;64.97;102914.81;7361703;19;19927;-61
2022/01/18 02:52:36;;;;;;;;;;;;;;;1.95;64.92;102910.47;7365946;19;19917;-62
2022/01/18 02:55:02;;;;;;;;;;;;;;;1.95;65.07;102913.91;7367642;19;19947;-61
2022/01/18 02:57:27;;;;;;;;;;;;;;;1.95;64.92;102915.63;7365920;19;20291;-61
2022/01/18 03:00:19;;;;;;;;;;;;;;;1.95;65.09;102924.22;7357232;19;19926;-62
2022/01/18 03:05:28;;;;;;;;;;;;;;;1.93;64.98;102930.13;7373216;19;19948;-62
2022/01/18 03:07:53;;;;;;;;;;;;;;;1.92;64.82;102933.50;7373896;19;20549;-62
2022/01/18 03:10:19;;;;;;;;;;;;;;;1.91;64.95;102926.56;7372516;19;19998;-61
2022/01/18 03:12:44;;;;;;;;;;;;;;;1.89;64.98;102934.25;7356944;19;19923;-62
2022/01/18 03:15:10;;;;;;;;;;;;;;;1.88;64.94;102932.47;7361416;19;19929;-61
2022/01/18 03:17:36;;;;;;;;;;;;;;;1.87;65.07;102940.13;7365970;19;19914;-62
2022/01/18 03:20:03;;;;;;;;;;;;;;;1.86;65.11;102938.34;7365722;19;19923;-62
2022/01/18 03:22:28;;;;;;;;;;;;;;;1.85;64.95;102942.63;7365282;19;20601;-61
2022/01/18 03:30:07;;;;;;;;;;;;;;;1.81;65.50;102946.72;7365840;19;19935;-61
2022/01/18 03:32:32;;;;;;;;;;;;;;;1.80;65.58;102939.81;7364750;19;20002;-61
2022/01/18 03:34:57;;;;;;;;;;;;;;;1.79;65.67;102932.91;7364727;19;19922;-61
2022/01/18 03:37:23;;;;;;;;;;;;;;;1.79;65.31;102938.06;7363515;19;19927;-61
2022/01/18 03:39:48;;;;;;;;;;;;;;;1.79;65.58;102938.06;7359495;19;19915;-61
2022/01/18 03:45:01;;;;;;;;;;;;;;;1.82;65.71;102927.00;7359852;19;19986;-61
2022/01/18 03:47:27;;;;;;;;;;;;;;;1.84;65.66;102916.78;7365986;19;20544;-61
2022/01/18 03:49:52;;;;;;;;;;;;;;;1.84;65.67;102912.53;7368479;19;19918;-62
2022/01/18 03:52:17;;;;;;;;;;;;;;;1.86;65.80;102905.75;7371007;19;19929;-62
2022/01/18 03:54:47;;;;;;;;;;;;;;;1.87;65.93;102904.03;7365705;19;19968;-62
2022/01/18 03:57:12;;;;;;;;;;;;;;;1.89;65.54;102913.63;7365181;19;19914;-61
2022/01/18 03:59:37;;;;;;;;;;;;;;;1.92;65.97;102912.88;7368000;19;19918;-62
2022/01/18 04:02:03;;;;;;;;;;;;;;;1.94;66.18;102909.59;7362350;19;19948;-62
2022/01/18 04:04:28;;;;;;;;;;;;;;;1.96;66.44;102899.34;7364513;19;19915;-61
2022/01/18 04:06:53;;;;;;;;;;;;;;;1.99;65.95;102902.06;7356884;19;20556;-62
2022/01/18 04:09:20;;;;;;;;;;;;;;;2.01;66.28;102900.44;7364852;19;19918;-61
2022/01/18 04:11:45;;;;;;;;;;;;;;;2.02;66.09;102890.19;7364908;19;19927;-62
2022/01/18 04:14:10;;;;;;;;;;;;;;;2.05;66.28;102894.63;7366134;19;19915;-61
2022/01/18 04:16:44;;;;;;;;;;;;;;;2.06;66.02;102886.09;7364397;19;20370;-61
2022/01/18 04:27:39;;;;;;;;;;;;;;;2.09;66.26;102873.34;7366661;19;19936;-61
2022/01/18 04:30:05;;;;;;;;;;;;;;;2.09;66.00;102868.19;7366858;19;20293;-61
2022/01/18 04:32:30;;;;;;;;;;;;;;;2.08;66.25;102874.16;7366010;19;19915;-62
2022/01/18 04:34:55;;;;;;;;;;;;;;;2.06;66.31;102861.19;7366171;19;19930;-62
2022/01/18 04:37:21;;;;;;;;;;;;;;;2.06;66.59;102855.16;7366305;19;19915;-61
2022/01/18 04:39:48;;;;;;;;;;;;;;;2.05;66.20;102853.41;7365219;19;20546;-62
2022/01/18 04:42:18;;;;;;;;;;;;;;;2.04;66.31;102851.63;7367536;19;19930;-62
2022/01/18 04:50:11;;;;;;;;;;;;;;;1.99;66.40;102841.13;7365703;19;20502;-62
2022/01/18 04:52:37;;;;;;;;;;;;;;;1.99;66.52;102829.94;7362791;19;19970;-61
2022/01/18 04:55:04;;;;;;;;;;;;;;;1.98;66.16;102825.59;7363937;19;19918;-62
2022/01/18 05:00:13;;;;;;;;;;;;;;;1.98;66.44;102823.91;7365376;19;20301;-62
2022/01/18 05:02:39;;;;;;;;;;;;;;;1.99;66.67;102823.06;7365375;19;19926;-61
2022/01/18 05:05:04;;;;;;;;;;;;;;;2.02;66.70;102812.00;7364637;19;19923;-62
2022/01/18 05:07:30;;;;;;;;;;;;;;;2.04;66.79;102828.44;7364095;19;20542;-61
2022/01/18 05:09:55;;;;;;;;;;;;;;;2.07;66.96;102842.34;7365358;19;19926;-61
2022/01/18 05:12:36;;;;;;;;;;;;;;;2.10;66.77;102830.41;7363417;19;19964;-61
2022/01/18 05:15:08;;;;;;;;;;;;;;;2.12;66.88;102832.25;7367187;19;19917;-61
2022/01/18 05:17:59;;;;;;;;;;;;;;;2.14;66.81;102828.06;7364220;19;19926;-61
2022/01/18 05:20:36;;;;;;;;;;;;;;;2.16;66.84;102820.38;7262239;19;2004455;-62
2022/01/18 05:23:04;;;;;;;;;;;;;;;2.19;66.64;102825.69;7364579;19;19926;-62
2022/01/18 05:25:29;;;;;;;;;;;;;;;2.22;66.46;102831.84;7368023;19;19949;-61
2022/01/18 05:27:56;;;;;;;;;;;;;;;2.22;66.64;102824.13;7370301;19;19935;-61
2022/01/18 05:30:22;;;;;;;;;;;;;;;2.25;66.78;102837.16;7370039;19;19919;-61
2022/01/18 05:32:47;;;;;;;;;;;;;;;2.28;66.78;102837.31;7371563;19;19978;-61
2022/01/18 05:35:12;;;;;;;;;;;;;;;2.30;66.83;102835.66;7370570;19;20521;-62
2022/01/18 05:37:37;;;;;;;;;;;;;;;2.36;67.30;102839.34;7369687;19;19914;-61
2022/01/18 05:40:03;;;;;;;;;;;;;;;2.39;67.21;102840.38;7370161;19;19923;-62
2022/01/18 05:42:28;;;;;;;;;;;;;;;2.43;67.06;102836.22;7370449;19;19915;-61
2022/01/18 05:44:53;;;;;;;;;;;;;;;2.45;67.09;102832.03;7371432;19;19939;-62
2022/01/18 05:47:18;;;;;;;;;;;;;;;2.48;67.30;102835.59;7368840;19;19932;-61
2022/01/18 05:49:44;;;;;;;;;;;;;;;2.52;67.20;102829.75;7370871;19;20591;-61
2022/01/18 05:52:09;;;;;;;;;;;;;;;2.55;67.29;102836.78;7372127;19;20232;-62
2022/01/18 05:54:34;;;;;;;;;;;;;;;2.59;67.06;102834.41;7369138;19;19952;-62
2022/01/18 05:56:59;;;;;;;;;;;;;;;2.64;67.40;102831.16;7370807;19;19952;-62
2022/01/18 05:59:34;;;;;;;;;;;;;;;2.67;67.10;102821.81;7370660;19;19933;-62
2022/01/18 06:02:02;;;;;;;;;;;;;;;2.72;66.94;102811.72;7371219;19;19933;-61
2022/01/18 06:07:12;;;;;;;;;;;;;;;2.79;67.29;102821.50;7371765;19;20633;-62
2022/01/18 06:09:37;;;;;;;;;;;;;;;2.82;67.43;102817.31;7369923;19;19915;-61
2022/01/18 06:12:02;;;;;;;;;;;;;;;2.84;67.32;102820.88;7368516;19;19923;-60
2022/01/18 06:14:28;;;;;;;;;;;;;;;2.86;67.41;102814.06;7369495;19;19975;-61
2022/01/18 06:16:53;;;;;;;;;;;;;;;2.90;67.02;102819.38;7367564;19;19986;-62
2022/01/18 06:19:18;;;;;;;;;;;;;;;2.92;66.94;102823.78;7371620;19;19914;-61
2022/01/18 06:21:43;;;;;;;;;;;;;;;2.97;66.87;102829.13;7368900;19;20374;-61
2022/01/18 06:24:11;;;;;;;;;;;;;;;3.01;67.22;102829.31;7371015;19;19922;-61
2022/01/18 06:26:37;;;;;;;;;;;;;;;3.05;67.07;102820.03;7370069;19;19926;-61
2022/01/18 06:29:02;;;;;;;;;;;;;;;3.07;66.75;102808.94;7368937;19;20655;-61
2022/01/18 06:31:27;;;;;;;;;;;;;;;3.10;67.01;102801.31;7368618;19;19919;-62
2022/01/18 06:33:53;;;;;;;;;;;;;;;3.12;67.36;102801.38;7369988;19;19938;-62
2022/01/18 06:36:18;;;;;;;;;;;;;;;3.14;66.90;102794.56;7365699;19;19919;-61
2022/01/18 06:38:43;;;;;;;;;;;;;;;3.14;67.04;102797.16;7369065;19;19923;-61
2022/01/18 06:41:09;;;;;;;;;;;;;;;3.15;67.46;102795.47;7369548;19;20611;-61
2022/01/18 06:43:34;;;;;;;;;;;;;;;3.15;67.18;102801.53;7370179;19;19925;-62
2022/01/18 06:46:00;;;;;;;;;;;;;;;3.15;67.65;102798.94;7369434;19;19943;-61
2022/01/18 06:48:25;;;;;;;;;;;;;;;3.15;67.42;102796.34;7366644;19;19923;-62
2022/01/18 06:50:50;;;;;;;;;;;;;;;3.16;67.47;102795.53;7368987;19;20263;-61
2022/01/18 06:53:15;;;;;;;;;;;;;;;3.16;67.54;102798.13;7367385;19;19924;-61
2022/01/18 06:55:41;;;;;;;;;;;;;;;3.17;67.31;102799.00;7369544;19;20734;-61
2022/01/18 06:58:06;;;;;;;;;;;;;;;3.17;67.76;102810.19;7367860;19;19918;-62
2022/01/18 07:00:31;;;;;;;;;;;;;;;3.18;67.68;102805.91;7369559;19;19925;-62
2022/01/18 07:02:56;;;;;;;;;;;;;;;3.19;67.19;102799.91;7369734;19;19921;-61
2022/01/18 07:05:22;;;;;;;;;;;;;;;3.22;67.09;102800.94;7367633;19;19949;-62
2022/01/18 07:07:47;;;;;;;;;;;;;;;3.25;67.55;102798.50;7370640;19;20270;-62
2022/01/18 07:10:13;;;;;;;;;;;;;;;3.29;67.70;102789.16;7369651;19;19926;-62
2022/01/18 07:12:39;;;;;;;;;;;;;;;3.32;67.44;102794.44;7368162;19;19936;-61
2022/01/18 07:15:06;;;;;;;;;;;;;;;3.35;67.69;102786.84;7370157;19;20600;-60
2022/01/18 07:17:32;;;;;;;;;;;;;;;3.39;67.82;102786.13;7363526;19;19922;-62
2022/01/18 07:19:57;;;;;;;;;;;;;;;3.43;67.97;102781.97;7368922;19;19910;-62
2022/01/18 07:22:22;;;;;;;;;;;;;;;3.48;67.70;102790.78;7364859;19;19922;-61
2022/01/18 07:24:49;;;;;;;;;;;;;;;3.51;67.97;102778.88;7368760;19;19939;-62
2022/01/18 07:27:15;;;;;;;;;;;;;;;3.53;67.64;102779.81;7366887;19;20381;-61
2022/01/18 07:29:41;;;;;;;;;;;;;;;3.57;67.92;102785.97;7364040;19;19911;-62
2022/01/18 07:32:07;;;;;;;;;;;;;;;3.58;67.96;102774.81;7366310;19;19922;-62
2022/01/18 07:34:34;;;;;;;;;;;;;;;3.62;67.47;102763.78;7368540;19;19936;-62
2022/01/18 07:37:00;;;;;;;;;;;;;;;3.64;67.91;102763.03;7367824;19;19914;-62
2022/01/18 07:39:25;;;;;;;;;;;;;;;3.68;67.85;102771.78;7367975;19;19914;-61
2022/01/18 07:41:50;;;;;;;;;;;;;;;3.71;67.96;102769.31;7360353;19;19954;-61
2022/01/18 07:44:16;;;;;;;;;;;;;;;3.73;67.77;102772.84;7369933;19;19933;-62
2022/01/18 07:46:41;;;;;;;;;;;;;;;3.73;67.75;102780.59;7357855;19;19982;-62
2022/01/18 07:49:06;;;;;;;;;;;;;;;3.75;67.98;102786.72;7361926;19;20516;-62
2022/01/18 07:51:31;;;;;;;;;;;;;;;3.77;67.71;102781.59;7367113;19;19930;-61
2022/01/18 07:53:57;;;;;;;;;;;;;;;3.77;68.01;102784.19;7359342;19;19930;-62
2022/01/18 07:56:22;;;;;;;;;;;;;;;3.77;67.82;102785.06;7346259;19;20011;-61
2022/01/18 07:58:47;;;;;;;;;;;;;;;3.79;67.96;102787.69;7362315;19;19966;-62
2022/01/18 08:01:12;;;;;;;;;;;;;;;3.80;67.87;102787.78;7364738;19;19939;-62
2022/01/18 08:03:38;;;;;;;;;;;;;;;3.82;67.79;102786.13;7363696;19;19918;-62
2022/01/18 08:06:03;;;;;;;;;;;;;;;3.83;68.05;102784.41;7367392;19;20527;-62
2022/01/18 08:08:28;;;;;;;;;;;;;;;3.83;68.19;102790.47;7364526;19;20755;-62
2022/01/18 08:10:54;;;;;;;;;;;;;;;3.83;67.92;102784.41;7366958;19;19915;-61
2022/01/18 08:13:25;;;;;;;;;;;;;;;3.81;67.88;102792.13;7347382;19;19929;-61
2022/01/18 08:15:58;;;;;;;;;;;;;;;3.81;68.19;102789.53;7364032;19;20006;-61
2022/01/18 08:18:24;;;;;;;;;;;;;;;3.82;67.80;102782.66;7359782;19;19919;-61
2022/01/18 08:20:49;;;;;;;;;;;;;;;3.82;67.76;102777.50;7367406;19;19926;-61
2022/01/18 08:23:14;;;;;;;;;;;;;;;3.81;67.85;102775.72;7366503;19;19944;-60
2022/01/18 08:25:39;;;;;;;;;;;;;;;3.81;68.19;102771.44;7358503;19;19923;-61
2022/01/18 08:28:05;;;;;;;;;;;;;;;3.81;68.23;102771.44;7366013;19;19947;-61
2022/01/18 08:30:30;;;;;;;;;;;;;;;3.80;67.94;102764.53;7365890;19;19926;-61
2022/01/18 08:32:56;;;;;;;;;;;;;;;3.80;68.07;102753.28;7363373;19;19915;-62
2022/01/18 08:35:22;;;;;;;;;;;;;;;3.78;67.98;102750.63;7363912;19;20600;-62
2022/01/18 08:37:47;;;;;;;;;;;;;;;3.75;67.83;102735.03;7365322;19;20862;-61
2022/01/18 08:40:13;;;;;;;;;;;;;;;3.74;68.10;102733.25;7365028;19;19948;-62
2022/01/18 08:42:38;;;;;;;;;;;;;;;3.75;67.80;102728.97;7355304;19;20533;-62
2022/01/18 08:45:06;;;;;;;;;;;;;;;3.76;67.81;102723.88;7363234;19;19919;-61
2022/01/18 08:47:31;;;;;;;;;;;;;;;3.80;67.91;102718.00;7366514;19;19914;-61
2022/01/18 08:49:57;;;;;;;;;;;;;;;3.83;67.98;102725.84;7359639;19;19918;-61
2022/01/18 08:52:22;;;;;;;;;;;;;;;3.90;68.18;102745.94;7361584;19;20333;-62
2022/01/18 08:54:48;;;;;;;;;;;;;;;3.97;68.42;102748.75;7361380;19;19947;-61
2022/01/18 08:57:14;;;;;;;;;;;;;;;4.04;68.52;102753.31;7360029;19;20026;-62
2022/01/18 08:59:40;;;;;;;;;;;;;;;4.06;68.23;102762.03;7374686;19;19930;-61
2022/01/18 09:02:06;;;;;;;;;;;;;;;4.09;68.61;102762.13;7372810;19;19922;-61
2022/01/18 09:04:33;;;;;;;;;;;;;;;4.09;68.17;102756.94;7374747;19;20674;-62
2022/01/18 09:07:02;;;;;;;;;;;;;;;4.09;67.87;102754.38;7373259;19;19922;-62
2022/01/18 09:09:27;;;;;;;;;;;;;;;4.06;67.71;102756.84;7376403;19;19954;-61
2022/01/18 09:11:53;;;;;;;;;;;;;;;4.03;67.80;102761.91;7379512;19;20493;-61
2022/01/18 09:14:18;;;;;;;;;;;;;;;4.00;67.77;102774.69;7368262;19;19923;-61
2022/01/18 09:16:44;;;;;;;;;;;;;;;3.98;67.82;102776.34;7376572;19;19930;-62
2022/01/18 09:19:09;;;;;;;;;;;;;;;3.96;68.00;102771.13;7372673;19;19934;-61
2022/01/18 09:21:34;;;;;;;;;;;;;;;3.95;67.77;102773.66;7378578;19;19914;-61
2022/01/18 09:24:00;;;;;;;;;;;;;;;3.95;68.05;102778.81;7380092;19;19931;-62
2022/01/18 09:26:26;;;;;;;;;;;;;;;3.93;68.14;102772.72;7378982;19;19915;-62
2022/01/18 09:28:51;;;;;;;;;;;;;;;3.94;68.31;102789.97;7373799;19;20725;-62
2022/01/18 09:31:16;;;;;;;;;;;;;;;3.94;67.98;102795.16;7375103;19;19918;-62
2022/01/18 09:33:42;;;;;;;;;;;;;;;3.96;68.15;102771.13;7378680;19;19925;-60
2022/01/18 09:36:07;;;;;;;;;;;;;;;4.04;67.93;102768.81;7376657;19;19919;-61
2022/01/18 09:38:32;;;;;;;;;;;;;;;4.15;68.11;102772.69;7370758;19;20015;-62
2022/01/18 09:40:59;;;;;;;;;;;;;;;4.23;68.35;102771.28;7379956;19;20348;-62
2022/01/18 09:43:27;;;;;;;;;;;;;;;4.33;68.36;102773.38;7368101;19;19945;-62
2022/01/18 09:45:52;;;;;;;;;;;;;;;4.47;68.39;102776.47;7376448;19;19986;-62
2022/01/18 09:48:17;;;;;;;;;;;;;;;4.64;68.64;102788.25;7373405;19;19915;-62
2022/01/18 09:50:44;;;;;;;;;;;;;;;4.79;68.42;102800.00;7378580;19;19922;-62
2022/01/18 09:53:10;;;;;;;;;;;;;;;4.79;68.29;102780.16;7378626;19;19931;-62
2022/01/18 09:55:36;;;;;;;;;;;;;;;5.05;68.44;102803.47;7374939;19;19915;-62
2022/01/18 09:58:04;;;;;;;;;;;;;;;5.18;68.35;102790.09;7379003;19;19969;-62
2022/01/18 10:00:30;;;;;;;;;;;;;;;5.26;68.15;102780.84;7375949;19;20423;-62
2022/01/18 10:02:56;;;;;;;;;;;;;;;5.33;67.87;102772.47;7380402;19;19915;-62
2022/01/18 10:05:25;;;;;;;;;;;;;;;5.38;68.41;102776.09;7377443;19;19915;-62
2022/01/18 10:08:15;;;;;;;;;;;;;;;5.43;68.35;102787.47;7375824;19;19926;-61
2022/01/18 10:10:44;;;;;;;;;;;;;;;5.61;68.53;102788.88;7371956;19;19919;-62
2022/01/18 10:13:29;;;;;;;;;;;;;;;5.91;69.30;102792.44;7358494;19;19926;-62
2022/01/18 10:15:58;;;;;;;;;;;;;;;6.37;69.36;102798.09;7369953;19;19954;-62
2022/01/18 10:18:31;;;;;;;;;;;;;;;6.85;69.63;102795.97;7364283;19;19918;-62
2022/01/18 10:20:58;;;;;;;;;;;;;;;7.36;69.47;102798.09;7370767;19;21343;-62
2022/01/18 10:23:24;;;;;;;;;;;;;;;7.73;68.72;102788.56;7367685;19;19942;-62
2022/01/18 10:25:50;;;;;;;;;;;;;;;8.00;68.54;102799.56;7370172;19;19926;-62
2022/01/18 10:28:29;;;;;;;;;;;;;;;8.17;67.66;102784.31;7366957;19;19923;-62
2022/01/18 10:30:54;;;;;;;;;;;;;;;8.26;67.45;102766.28;7368047;19;19919;-62
2022/01/18 10:33:26;;;;;;;;;;;;;;;8.30;67.42;102773.28;7360870;19;22557;-63
2022/01/18 10:36:04;;;;;;;;;;;;;;;8.32;67.10;102775.94;7364862;19;19918;-62
2022/01/18 10:38:30;;;;;;;;;;;;;;;8.31;67.20;102771.56;7369941;19;19914;-62
2022/01/18 10:40:55;;;;;;;;;;;;;;;8.30;67.16;102782.81;7367734;19;19956;-62
2022/01/18 10:43:27;;;;;;;;;;;;;;;8.28;67.23;102779.31;7361238;19;20044;-62
2022/01/18 10:46:09;;;;;;;;;;;;;;;8.26;66.79;102786.22;7368408;19;19930;-62
2022/01/18 10:48:44;;;;;;;;;;;;;;;8.23;66.81;102775.75;7371206;19;19915;-62
2022/01/18 10:51:24;;;;;;;;;;;;;;;8.19;67.21;102766.13;7366436;19;19943;-62
2022/01/18 10:54:07;;;;;;;;;;;;;;;8.18;67.16;102761.78;7362790;19;19934;-62
2022/01/18 10:56:42;;;;;;;;;;;;;;;8.19;67.07;102764.41;7364317;19;19930;-62
2022/01/18 10:59:19;;;;;;;;;;;;;;;8.23;67.11;102762.75;7361704;19;19911;-62
2022/01/18 11:01:44;;;;;;;;;;;;;;;8.27;67.06;102761.97;7367492;19;19910;-62
2022/01/18 11:04:11;;;;;;;;;;;;;;;8.35;67.65;102760.38;7370610;19;19922;-63
2022/01/18 11:06:38;;;;;;;;;;;;;;;8.47;67.41;102749.38;7369961;19;19919;-62
2022/01/18 11:09:11;;;;;;;;;;;;;;;8.55;67.57;102748.63;7369976;19;19942;-62
2022/01/18 11:11:43;;;;;;;;;;;;;;;8.74;67.81;102748.97;7367823;19;19926;-62
2022/01/18 11:14:09;;;;;;;;;;;;;;;8.88;67.88;102725.78;7362414;19;19922;-62
2022/01/18 11:16:40;;;;;;;;;;;;;;;9.01;67.42;102723.38;7364778;19;19922;-60
2022/01/18 11:19:07;;;;;;;;;;;;;;;9.17;67.83;102728.84;7362760;19;19998;-61
2022/01/18 11:21:33;;;;;;;;;;;;;;;9.35;67.52;102739.56;7358708;19;19931;-62
2022/01/18 11:24:00;;;;;;;;;;;;;;;9.50;67.74;102731.97;7353974;19;19921;-62
2022/01/18 11:26:25;;;;;;;;;;;;;;;9.63;67.38;102725.19;7367794;19;19986;-62
2022/01/18 11:28:56;;;;;;;;;;;;;;;9.76;67.43;102731.44;7362629;19;19972;-62
2022/01/18 11:31:21;;;;;;;;;;;;;;;9.90;67.02;102723.78;7362893;19;19929;-62
2022/01/18 11:33:52;;;;;;;;;;;;;;;10.03;67.27;102726.56;7368253;19;19957;-63
2022/01/18 11:36:20;;;;;;;;;;;;;;;10.24;67.81;102719.84;7368783;19;20344;-63
2022/01/18 11:38:49;;;;;;;;;;;;;;;10.44;67.35;102734.03;7367863;19;19989;-62
2022/01/18 11:41:21;;;;;;;;;;;;;;;10.65;67.57;102723.78;7360812;19;19936;-62
2022/01/18 11:43:47;;;;;;;;;;;;;;;10.90;67.43;102718.78;7364004;19;19951;-63
2022/01/18 11:46:18;;;;;;;;;;;;;;;11.08;67.34;102703.22;7360792;19;20257;-62
2022/01/18 11:48:44;;;;;;;;;;;;;;;11.27;66.66;102709.47;7370837;19;20416;-62
2022/01/18 11:51:16;;;;;;;;;;;;;;;11.40;66.20;102705.16;7357907;19;19934;-62
2022/01/18 11:56:11;;;;;;;;;;;;;;;11.59;66.01;102707.03;7359375;19;20622;-63
2022/01/18 11:58:37;;;;;;;;;;;;;;;11.74;65.82;102707.97;7367549;19;19943;-62
2022/01/18 12:01:03;;;;;;;;;;;;;;;11.83;65.80;102700.19;7368061;19;19915;-63
2022/01/18 12:03:32;;;;;;;;;;;;;;;11.91;64.67;102694.13;7361633;19;19922;-63
2022/01/18 12:05:59;;;;;;;;;;;;;;;11.93;64.91;102686.28;7367925;19;19970;-63
2022/01/18 12:08:56;;;;;;;;;;;;;;;11.96;64.53;102691.50;7367624;19;20289;-63
2022/01/18 12:11:28;;;;;;;;;;;;;;;11.99;64.42;102677.56;7255780;19;2003979;-63
2022/01/18 12:13:57;;;;;;;;;;;;;;;11.97;64.23;102682.81;7367108;19;19922;-63
2022/01/18 12:16:25;;;;;;;;;;;;;;;11.93;63.66;102683.66;7363072;19;20469;-62
2022/01/18 12:18:52;;;;;;;;;;;;;;;11.88;64.10;102688.00;7361857;19;20661;-62
2022/01/18 12:21:20;;;;;;;;;;;;;;;11.82;63.58;102682.75;7368072;19;19925;-62
2022/01/18 12:23:45;;;;;;;;;;;;;;;11.75;63.66;102671.34;7368322;19;19926;-62
2022/01/18 12:26:21;;;;;;;;;;;;;;;11.70;63.97;102663.47;7362707;19;19926;-62
2022/01/18 12:31:53;;;;;;;;;;;;;;;11.62;64.21;102659.94;7356693;19;19919;-63
2022/01/18 12:36:52;;;;;;;;;;;;;;;11.63;64.32;102664.31;7366779;19;19927;-62
2022/01/18 12:39:18;;;;;;;;;;;;;;;11.68;64.75;102659.97;7366816;19;19932;-63
2022/01/18 12:41:51;;;;;;;;;;;;;;;11.73;64.63;102649.53;7366676;19;20353;-63
2022/01/18 12:44:22;;;;;;;;;;;;;;;11.81;64.74;102654.78;7364602;19;19919;-62
2022/01/18 12:46:54;;;;;;;;;;;;;;;11.85;64.33;102659.19;7361693;19;20263;-63
2022/01/18 12:49:20;;;;;;;;;;;;;;;11.85;63.85;102652.22;7364325;19;19922;-62
2022/01/18 12:51:45;;;;;;;;;;;;;;;11.87;64.18;102649.63;7359710;19;19942;-63
2022/01/18 12:54:10;;;;;;;;;;;;;;;11.87;63.78;102654.84;7366727;19;19914;-62
2022/01/18 12:56:36;;;;;;;;;;;;;;;11.86;63.94;102658.31;7368466;19;19915;-62
2022/01/18 12:59:04;;;;;;;;;;;;;;;11.83;63.52;102645.22;7364425;19;20378;-62
2022/01/18 13:01:30;;;;;;;;;;;;;;;11.80;63.90;102638.19;7367556;19;20515;-62
2022/01/18 13:03:56;;;;;;;;;;;;;;;11.79;63.50;102635.56;7367382;19;19985;-63
2022/01/18 13:06:22;;;;;;;;;;;;;;;11.74;63.39;102617.25;7361011;19;20395;-63
2022/01/18 13:08:52;;;;;;;;;;;;;;;11.74;63.82;102614.63;7351580;19;19951;-62
2022/01/18 13:11:23;;;;;;;;;;;;;;;11.72;63.80;102618.13;7367388;19;19915;-63
2022/01/18 13:13:55;;;;;;;;;;;;;;;11.72;63.52;102605.91;7361462;19;19951;-62
2022/01/18 13:27:04;;;;;;;;;;;;;;;11.82;63.27;102596.38;7362735;19;19943;-63
2022/01/18 13:29:30;;;;;;;;;;;;;;;11.86;63.13;102578.06;7357097;19;20539;-62
2022/01/18 13:32:15;;;;;;;;;;;;;;;11.91;63.06;102578.03;7372599;19;19930;-63
2022/01/18 13:34:41;;;;;;;;;;;;;;;11.97;62.90;102577.22;7370137;19;19922;-62
2022/01/18 13:37:11;;;;;;;;;;;;;;;12.01;63.09;102574.56;7371836;19;20086;-62
2022/01/18 13:39:40;;;;;;;;;;;;;;;12.05;62.84;102570.22;7366584;19;19947;-62
2022/01/18 13:42:06;;;;;;;;;;;;;;;12.07;63.19;102569.38;7359441;19;19931;-62
2022/01/18 13:44:31;;;;;;;;;;;;;;;12.08;63.24;102565.88;7356209;19;19915;-62
2022/01/18 13:47:12;;;;;;;;;;;;;;;12.12;62.82;102572.84;7356751;19;19923;-62
2022/01/18 13:49:37;;;;;;;;;;;;;;;12.15;62.85;102564.97;7368176;19;20665;-62
2022/01/18 13:52:07;;;;;;;;;;;;;;;12.17;62.82;102576.34;7367415;19;19958;-62
2022/01/18 13:54:47;;;;;;;;;;;;;;;12.18;62.94;102559.75;7363586;19;19937;-63
2022/01/18 13:57:13;;;;;;;;;;;;;;;12.19;63.13;102568.50;7360974;19;19939;-63
2022/01/18 13:59:38;;;;;;;;;;;;;;;12.22;62.85;102567.63;7370549;19;19947;-63
2022/01/18 14:02:30;;;;;;;;;;;;;;;12.22;63.11;102565.88;7368974;19;19982;-63
2022/01/18 14:05:07;;;;;;;;;;;;;;;12.22;62.95;102575.50;7260195;19;2004251;-62
2022/01/18 14:07:32;;;;;;;;;;;;;;;12.22;62.98;102562.41;7369761;19;20342;-62
2022/01/18 14:10:01;;;;;;;;;;;;;;;12.22;62.75;102558.03;7360587;19;19922;-63
2022/01/18 14:12:30;;;;;;;;;;;;;;;12.22;62.44;102555.41;7366316;19;19935;-62